sensor_id;sensor_type;location;lat;lon;timestamp;pressure;altitude;pressure_sealevel;temperature;humidity
47913;BME280;33676;51.006;17.180;2023-08-20T00:01:35;100502.55;;;21.38;99.98
47913;BME280;33676;51.006;17.180;2023-08-20T00:04:03;100505.02;;;21.35;100.00
47913;BME280;33676;51.006;17.180;2023-08-20T00:06:30;100498.33;;;21.32;100.00
47913;BME280;33676;51.006;17.180;2023-08-20T00:08:58;100497.11;;;21.29;100.00
47913;BME280;33676;51.006;17.180;2023-08-20T00:11:25;100498.54;;;21.26;99.99
47913;BME280;33676;51.006;17.180;2023-08-20T00:13:52;100499.73;;;21.24;100.00
47913;BME280;33676;51.006;17.180;2023-08-20T00:16:19;100498.75;;;21.21;100.00
47913;BME280;33676;51.006;17.180;2023-08-20T00:18:47;100497.81;;;21.17;100.00
47913;BME280;33676;51.006;17.180;2023-08-20T00:21:14;100503.36;;;21.15;100.00
47913;BME280;33676;51.006;17.180;2023-08-20T00:23:42;100499.59;;;21.12;100.00
47913;BME280;33676;51.006;17.180;2023-08-20T00:26:09;100502.02;;;21.08;100.00
47913;BME280;33676;51.006;17.180;2023-08-20T00:28:37;100504.96;;;21.04;100.00
47913;BME280;33676;51.006;17.180;2023-08-20T00:31:05;100506.41;;;21.03;100.00
47913;BME280;33676;51.006;17.180;2023-08-20T00:33:32;100505.10;;;21.00;100.00
47913;BME280;33676;51.006;17.180;2023-08-20T00:35:59;100505.08;;;20.99;100.00
47913;BME280;33676;51.006;17.180;2023-08-20T00:38:27;100501.15;;;20.95;100.00
47913;BME280;33676;51.006;17.180;2023-08-20T00:40:54;100500.61;;;20.89;100.00
47913;BME280;33676;51.006;17.180;2023-08-20T00:43:21;100497.14;;;20.85;100.00
47913;BME280;33676;51.006;17.180;2023-08-20T00:45:48;100495.94;;;20.81;100.00
47913;BME280;33676;51.006;17.180;2023-08-20T00:48:15;100493.36;;;20.78;100.00
47913;BME280;33676;51.006;17.180;2023-08-20T00:50:43;100490.04;;;20.75;100.00
47913;BME280;33676;51.006;17.180;2023-08-20T00:53:11;100490.89;;;20.72;100.00
47913;BME280;33676;51.006;17.180;2023-08-20T00:55:42;100494.27;;;20.69;100.00
47913;BME280;33676;51.006;17.180;2023-08-20T00:58:10;100490.25;;;20.66;100.00
47913;BME280;33676;51.006;17.180;2023-08-20T01:00:38;100494.11;;;20.64;100.00
47913;BME280;33676;51.006;17.180;2023-08-20T01:03:05;100493.80;;;20.63;100.00
47913;BME280;33676;51.006;17.180;2023-08-20T01:05:39;100492.17;;;20.61;100.00
47913;BME280;33676;51.006;17.180;2023-08-20T01:08:39;100489.23;;;20.58;100.00
47913;BME280;33676;51.006;17.180;2023-08-20T01:11:17;100489.73;;;20.53;100.00
47913;BME280;33676;51.006;17.180;2023-08-20T01:13:48;100495.48;;;20.51;100.00
47913;BME280;33676;51.006;17.180;2023-08-20T01:16:15;100490.54;;;20.49;100.00
47913;BME280;33676;51.006;17.180;2023-08-20T01:18:42;100491.23;;;20.49;100.00
47913;BME280;33676;51.006;17.180;2023-08-20T01:21:35;100487.57;;;20.49;100.00
47913;BME280;33676;51.006;17.180;2023-08-20T01:24:17;100486.63;;;20.46;100.00
47913;BME280;33676;51.006;17.180;2023-08-20T01:29:36;100487.08;;;20.39;100.00
47913;BME280;33676;51.006;17.180;2023-08-20T01:32:05;100484.53;;;20.36;100.00
47913;BME280;33676;51.006;17.180;2023-08-20T01:34:32;100484.11;;;20.34;100.00
47913;BME280;33676;51.006;17.180;2023-08-20T01:37:00;100482.69;;;20.34;100.00
47913;BME280;33676;51.006;17.180;2023-08-20T01:39:27;100480.08;;;20.38;100.00
47913;BME280;33676;51.006;17.180;2023-08-20T01:41:54;100478.93;;;20.42;100.00
47913;BME280;33676;51.006;17.180;2023-08-20T01:44:21;100478.31;;;20.44;100.00
47913;BME280;33676;51.006;17.180;2023-08-20T01:46:48;100480.92;;;20.42;100.00
47913;BME280;33676;51.006;17.180;2023-08-20T01:49:15;100474.99;;;20.35;100.00
47913;BME280;33676;51.006;17.180;2023-08-20T01:51:42;100477.90;;;20.32;100.00
47913;BME280;33676;51.006;17.180;2023-08-20T01:54:09;100476.81;;;20.31;100.00
47913;BME280;33676;51.006;17.180;2023-08-20T01:56:36;100471.16;;;20.29;100.00
47913;BME280;33676;51.006;17.180;2023-08-20T01:59:03;100469.35;;;20.27;100.00
47913;BME280;33676;51.006;17.180;2023-08-20T02:01:30;100467.52;;;20.26;100.00
47913;BME280;33676;51.006;17.180;2023-08-20T02:03:57;100468.21;;;20.23;100.00
47913;BME280;33676;51.006;17.180;2023-08-20T02:06:24;100469.30;;;20.20;100.00
47913;BME280;33676;51.006;17.180;2023-08-20T02:08:51;100471.88;;;20.17;100.00
47913;BME280;33676;51.006;17.180;2023-08-20T02:11:18;100475.55;;;20.16;100.00
47913;BME280;33676;51.006;17.180;2023-08-20T02:13:45;100480.52;;;20.15;100.00
47913;BME280;33676;51.006;17.180;2023-08-20T02:16:12;100484.78;;;20.13;100.00
47913;BME280;33676;51.006;17.180;2023-08-20T02:18:39;100489.48;;;20.12;100.00
47913;BME280;33676;51.006;17.180;2023-08-20T02:21:06;100489.61;;;20.11;100.00
47913;BME280;33676;51.006;17.180;2023-08-20T02:23:33;100486.57;;;20.10;100.00
47913;BME280;33676;51.006;17.180;2023-08-20T02:26:00;100490.84;;;20.08;100.00
47913;BME280;33676;51.006;17.180;2023-08-20T02:28:28;100492.41;;;20.07;100.00
47913;BME280;33676;51.006;17.180;2023-08-20T02:30:55;100496.07;;;20.06;100.00
47913;BME280;33676;51.006;17.180;2023-08-20T02:33:24;100496.02;;;20.05;100.00
47913;BME280;33676;51.006;17.180;2023-08-20T02:35:51;100496.82;;;20.04;100.00
47913;BME280;33676;51.006;17.180;2023-08-20T02:38:18;100496.46;;;20.03;100.00
47913;BME280;33676;51.006;17.180;2023-08-20T02:40:45;100493.70;;;20.00;100.00
47913;BME280;33676;51.006;17.180;2023-08-20T02:43:12;100496.58;;;19.99;100.00
47913;BME280;33676;51.006;17.180;2023-08-20T02:45:42;100495.33;;;19.97;100.00
47913;BME280;33676;51.006;17.180;2023-08-20T02:48:10;100497.71;;;19.96;100.00
47913;BME280;33676;51.006;17.180;2023-08-20T02:50:38;100496.16;;;19.95;100.00
47913;BME280;33676;51.006;17.180;2023-08-20T02:53:05;100497.90;;;19.93;100.00
47913;BME280;33676;51.006;17.180;2023-08-20T02:55:33;100497.31;;;19.91;100.00
47913;BME280;33676;51.006;17.180;2023-08-20T02:58:00;100494.00;;;19.89;100.00
47913;BME280;33676;51.006;17.180;2023-08-20T03:00:30;100492.54;;;19.87;100.00
47913;BME280;33676;51.006;17.180;2023-08-20T03:02:58;100496.97;;;19.86;100.00
47913;BME280;33676;51.006;17.180;2023-08-20T03:05:25;100497.41;;;19.85;100.00
47913;BME280;33676;51.006;17.180;2023-08-20T03:07:52;100499.08;;;19.84;100.00
47913;BME280;33676;51.006;17.180;2023-08-20T03:10:19;100498.38;;;19.84;100.00
47913;BME280;33676;51.006;17.180;2023-08-20T03:12:46;100496.61;;;19.84;100.00
47913;BME280;33676;51.006;17.180;2023-08-20T03:15:13;100501.16;;;19.85;100.00
47913;BME280;33676;51.006;17.180;2023-08-20T03:17:40;100499.64;;;19.84;100.00
47913;BME280;33676;51.006;17.180;2023-08-20T03:20:09;100506.02;;;19.84;100.00
47913;BME280;33676;51.006;17.180;2023-08-20T03:22:37;100513.31;;;19.84;100.00
47913;BME280;33676;51.006;17.180;2023-08-20T03:25:05;100514.42;;;19.82;100.00
47913;BME280;33676;51.006;17.180;2023-08-20T03:27:33;100512.59;;;19.79;100.00
47913;BME280;33676;51.006;17.180;2023-08-20T03:30:01;100514.16;;;19.75;100.00
47913;BME280;33676;51.006;17.180;2023-08-20T03:32:28;100512.57;;;19.69;100.00
47913;BME280;33676;51.006;17.180;2023-08-20T03:34:55;100516.88;;;19.64;100.00
47913;BME280;33676;51.006;17.180;2023-08-20T03:37:24;100518.03;;;19.58;100.00
47913;BME280;33676;51.006;17.180;2023-08-20T03:39:51;100516.48;;;19.53;100.00
47913;BME280;33676;51.006;17.180;2023-08-20T03:42:18;100520.29;;;19.49;100.00
47913;BME280;33676;51.006;17.180;2023-08-20T03:44:45;100518.03;;;19.45;100.00
47913;BME280;33676;51.006;17.180;2023-08-20T03:47:12;100518.38;;;19.42;100.00
47913;BME280;33676;51.006;17.180;2023-08-20T03:49:39;100517.89;;;19.39;100.00
47913;BME280;33676;51.006;17.180;2023-08-20T03:52:06;100511.92;;;19.30;100.00
47913;BME280;33676;51.006;17.180;2023-08-20T03:54:33;100511.89;;;19.27;100.00
47913;BME280;33676;51.006;17.180;2023-08-20T03:57:00;100516.52;;;19.29;100.00
47913;BME280;33676;51.006;17.180;2023-08-20T03:59:28;100522.61;;;19.34;100.00
47913;BME280;33676;51.006;17.180;2023-08-20T04:01:56;100522.46;;;19.40;100.00
47913;BME280;33676;51.006;17.180;2023-08-20T04:04:23;100524.23;;;19.39;100.00
47913;BME280;33676;51.006;17.180;2023-08-20T04:06:51;100525.14;;;19.36;100.00
47913;BME280;33676;51.006;17.180;2023-08-20T04:09:18;100522.09;;;19.34;100.00
47913;BME280;33676;51.006;17.180;2023-08-20T04:11:45;100512.73;;;19.34;100.00
47913;BME280;33676;51.006;17.180;2023-08-20T04:14:12;100512.11;;;19.33;100.00
47913;BME280;33676;51.006;17.180;2023-08-20T04:16:39;100517.34;;;19.33;100.00
47913;BME280;33676;51.006;17.180;2023-08-20T04:19:07;100522.69;;;19.34;100.00
47913;BME280;33676;51.006;17.180;2023-08-20T04:21:34;100524.08;;;19.36;100.00
47913;BME280;33676;51.006;17.180;2023-08-20T04:24:00;100526.16;;;19.38;100.00
47913;BME280;33676;51.006;17.180;2023-08-20T04:26:28;100528.11;;;19.41;100.00
47913;BME280;33676;51.006;17.180;2023-08-20T04:28:55;100525.83;;;19.44;100.00
47913;BME280;33676;51.006;17.180;2023-08-20T04:31:22;100529.97;;;19.46;100.00
47913;BME280;33676;51.006;17.180;2023-08-20T04:33:49;100531.99;;;19.49;100.00
47913;BME280;33676;51.006;17.180;2023-08-20T04:36:17;100532.16;;;19.50;100.00
47913;BME280;33676;51.006;17.180;2023-08-20T04:38:44;100534.67;;;19.52;100.00
47913;BME280;33676;51.006;17.180;2023-08-20T04:41:11;100531.80;;;19.56;100.00
47913;BME280;33676;51.006;17.180;2023-08-20T04:43:38;100528.98;;;19.60;100.00
47913;BME280;33676;51.006;17.180;2023-08-20T04:46:05;100531.08;;;19.65;100.00
47913;BME280;33676;51.006;17.180;2023-08-20T04:48:32;100528.93;;;19.70;100.00
47913;BME280;33676;51.006;17.180;2023-08-20T04:50:59;100531.16;;;19.75;100.00
47913;BME280;33676;51.006;17.180;2023-08-20T04:53:27;100533.81;;;19.81;100.00
47913;BME280;33676;51.006;17.180;2023-08-20T04:55:56;100537.22;;;19.88;100.00
47913;BME280;33676;51.006;17.180;2023-08-20T04:58:23;100539.52;;;19.94;100.00
47913;BME280;33676;51.006;17.180;2023-08-20T05:00:50;100542.35;;;20.00;100.00
47913;BME280;33676;51.006;17.180;2023-08-20T05:03:17;100547.64;;;20.07;100.00
47913;BME280;33676;51.006;17.180;2023-08-20T05:05:49;100545.95;;;20.13;100.00
47913;BME280;33676;51.006;17.180;2023-08-20T05:08:17;100544.14;;;20.22;100.00
47913;BME280;33676;51.006;17.180;2023-08-20T05:10:44;100544.84;;;20.29;100.00
47913;BME280;33676;51.006;17.180;2023-08-20T05:13:11;100544.70;;;20.37;100.00
47913;BME280;33676;51.006;17.180;2023-08-20T05:15:38;100547.35;;;20.43;100.00
47913;BME280;33676;51.006;17.180;2023-08-20T05:18:05;100551.03;;;20.50;100.00
47913;BME280;33676;51.006;17.180;2023-08-20T05:20:32;100553.61;;;20.57;100.00
47913;BME280;33676;51.006;17.180;2023-08-20T05:22:59;100555.63;;;20.66;100.00
47913;BME280;33676;51.006;17.180;2023-08-20T05:25:26;100556.07;;;20.74;100.00
47913;BME280;33676;51.006;17.180;2023-08-20T05:27:53;100552.30;;;20.83;100.00
47913;BME280;33676;51.006;17.180;2023-08-20T05:30:20;100552.44;;;20.91;100.00
47913;BME280;33676;51.006;17.180;2023-08-20T05:32:47;100554.43;;;21.00;100.00
47913;BME280;33676;51.006;17.180;2023-08-20T05:35:14;100556.59;;;21.08;100.00
47913;BME280;33676;51.006;17.180;2023-08-20T05:37:41;100558.14;;;21.18;100.00
47913;BME280;33676;51.006;17.180;2023-08-20T05:40:09;100556.60;;;21.25;100.00
47913;BME280;33676;51.006;17.180;2023-08-20T05:42:36;100554.86;;;21.34;100.00
47913;BME280;33676;51.006;17.180;2023-08-20T05:45:04;100554.33;;;21.42;100.00
47913;BME280;33676;51.006;17.180;2023-08-20T05:47:31;100556.05;;;21.53;100.00
47913;BME280;33676;51.006;17.180;2023-08-20T05:49:58;100560.77;;;21.64;100.00
47913;BME280;33676;51.006;17.180;2023-08-20T05:52:25;100560.90;;;21.73;100.00
47913;BME280;33676;51.006;17.180;2023-08-20T05:54:52;100563.31;;;21.83;100.00
47913;BME280;33676;51.006;17.180;2023-08-20T05:57:20;100566.50;;;21.98;100.00
47913;BME280;33676;51.006;17.180;2023-08-20T05:59:47;100569.79;;;22.19;100.00
47913;BME280;33676;51.006;17.180;2023-08-20T06:02:17;100572.44;;;22.36;100.00
47913;BME280;33676;51.006;17.180;2023-08-20T06:04:45;100578.33;;;22.53;100.00
47913;BME280;33676;51.006;17.180;2023-08-20T06:07:12;100578.69;;;22.68;100.00
47913;BME280;33676;51.006;17.180;2023-08-20T06:09:39;100579.73;;;22.76;100.00
47913;BME280;33676;51.006;17.180;2023-08-20T06:12:06;100577.54;;;22.83;100.00
47913;BME280;33676;51.006;17.180;2023-08-20T06:14:33;100577.23;;;22.91;100.00
47913;BME280;33676;51.006;17.180;2023-08-20T06:17:00;100578.75;;;23.00;100.00
47913;BME280;33676;51.006;17.180;2023-08-20T06:19:28;100575.78;;;23.08;100.00
47913;BME280;33676;51.006;17.180;2023-08-20T06:21:56;100574.49;;;23.17;100.00
47913;BME280;33676;51.006;17.180;2023-08-20T06:24:23;100577.11;;;23.25;100.00
47913;BME280;33676;51.006;17.180;2023-08-20T06:26:51;100577.80;;;23.34;100.00
47913;BME280;33676;51.006;17.180;2023-08-20T06:29:18;100581.72;;;23.45;100.00
47913;BME280;33676;51.006;17.180;2023-08-20T06:31:45;100580.58;;;23.55;100.00
47913;BME280;33676;51.006;17.180;2023-08-20T06:34:12;100578.46;;;23.65;100.00
47913;BME280;33676;51.006;17.180;2023-08-20T06:36:40;100578.70;;;23.76;100.00
47913;BME280;33676;51.006;17.180;2023-08-20T06:39:07;100579.58;;;23.87;100.00
47913;BME280;33676;51.006;17.180;2023-08-20T06:41:34;100582.56;;;23.97;100.00
47913;BME280;33676;51.006;17.180;2023-08-20T06:44:03;100579.65;;;24.08;100.00
47913;BME280;33676;51.006;17.180;2023-08-20T06:46:30;100579.29;;;24.20;100.00
47913;BME280;33676;51.006;17.180;2023-08-20T06:48:57;100583.19;;;24.30;100.00
47913;BME280;33676;51.006;17.180;2023-08-20T06:51:24;100583.34;;;24.41;100.00
47913;BME280;33676;51.006;17.180;2023-08-20T06:53:52;100584.29;;;24.51;100.00
47913;BME280;33676;51.006;17.180;2023-08-20T06:56:19;100585.73;;;24.63;100.00
47913;BME280;33676;51.006;17.180;2023-08-20T06:58:46;100585.00;;;24.74;100.00
47913;BME280;33676;51.006;17.180;2023-08-20T07:01:13;100586.02;;;24.85;100.00
47913;BME280;33676;51.006;17.180;2023-08-20T07:03:42;100587.68;;;24.97;100.00
47913;BME280;33676;51.006;17.180;2023-08-20T07:06:10;100586.48;;;25.10;100.00
47913;BME280;33676;51.006;17.180;2023-08-20T07:08:38;100587.02;;;25.24;100.00
47913;BME280;33676;51.006;17.180;2023-08-20T07:11:07;100591.11;;;25.39;100.00
47913;BME280;33676;51.006;17.180;2023-08-20T07:13:35;100595.61;;;25.53;100.00
47913;BME280;33676;51.006;17.180;2023-08-20T07:16:03;100593.17;;;25.67;100.00
47913;BME280;33676;51.006;17.180;2023-08-20T07:18:30;100594.38;;;25.82;100.00
47913;BME280;33676;51.006;17.180;2023-08-20T07:20:57;100599.21;;;25.96;100.00
47913;BME280;33676;51.006;17.180;2023-08-20T07:23:25;100600.59;;;26.09;100.00
47913;BME280;33676;51.006;17.180;2023-08-20T07:26:08;100599.02;;;26.21;100.00
47913;BME280;33676;51.006;17.180;2023-08-20T07:28:36;100601.67;;;26.34;100.00
47913;BME280;33676;51.006;17.180;2023-08-20T07:31:33;100608.68;;;26.47;100.00
47913;BME280;33676;51.006;17.180;2023-08-20T07:34:03;100613.28;;;26.64;100.00
47913;BME280;33676;51.006;17.180;2023-08-20T07:36:33;100611.48;;;26.82;100.00
47913;BME280;33676;51.006;17.180;2023-08-20T07:39:00;100615.92;;;27.01;100.00
47913;BME280;33676;51.006;17.180;2023-08-20T07:41:29;100612.07;;;27.20;100.00
47913;BME280;33676;51.006;17.180;2023-08-20T07:43:56;100611.95;;;27.35;100.00
47913;BME280;33676;51.006;17.180;2023-08-20T07:46:23;100612.55;;;27.47;100.00
47913;BME280;33676;51.006;17.180;2023-08-20T07:48:50;100614.84;;;27.53;100.00
47913;BME280;33676;51.006;17.180;2023-08-20T07:51:17;100615.67;;;27.61;100.00
47913;BME280;33676;51.006;17.180;2023-08-20T07:53:44;100615.46;;;27.71;100.00
47913;BME280;33676;51.006;17.180;2023-08-20T07:56:11;100616.11;;;27.82;100.00
47913;BME280;33676;51.006;17.180;2023-08-20T07:58:38;100616.06;;;27.89;100.00
47913;BME280;33676;51.006;17.180;2023-08-20T08:01:05;100612.77;;;27.98;100.00
47913;BME280;33676;51.006;17.180;2023-08-20T08:10:05;100623.83;;;28.34;100.00
47913;BME280;33676;51.006;17.180;2023-08-20T08:12:32;100629.71;;;28.44;100.00
47913;BME280;33676;51.006;17.180;2023-08-20T08:14:59;100632.05;;;28.56;100.00
47913;BME280;33676;51.006;17.180;2023-08-20T08:17:26;100634.35;;;28.64;100.00
47913;BME280;33676;51.006;17.180;2023-08-20T08:19:53;100635.19;;;28.76;100.00
47913;BME280;33676;51.006;17.180;2023-08-20T08:22:22;100635.18;;;28.86;100.00
47913;BME280;33676;51.006;17.180;2023-08-20T08:24:49;100633.13;;;28.96;100.00
47913;BME280;33676;51.006;17.180;2023-08-20T08:27:16;100630.73;;;29.06;100.00
47913;BME280;33676;51.006;17.180;2023-08-20T08:29:43;100628.17;;;29.17;100.00
47913;BME280;33676;51.006;17.180;2023-08-20T08:32:12;100626.11;;;29.30;100.00
47913;BME280;33676;51.006;17.180;2023-08-20T08:34:39;100629.26;;;29.45;100.00
47913;BME280;33676;51.006;17.180;2023-08-20T08:37:06;100627.27;;;29.59;100.00
47913;BME280;33676;51.006;17.180;2023-08-20T08:39:33;100630.23;;;29.73;100.00
47913;BME280;33676;51.006;17.180;2023-08-20T08:42:04;100630.23;;;29.87;100.00
47913;BME280;33676;51.006;17.180;2023-08-20T08:44:33;100634.70;;;30.02;100.00
47913;BME280;33676;51.006;17.180;2023-08-20T08:47:01;100635.45;;;30.12;98.56
47913;BME280;33676;51.006;17.180;2023-08-20T08:49:30;100632.58;;;30.32;99.59
47913;BME280;33676;51.006;17.180;2023-08-20T08:51:59;100630.84;;;30.59;100.00
47913;BME280;33676;51.006;17.180;2023-08-20T08:54:28;100634.39;;;30.91;100.00
47913;BME280;33676;51.006;17.180;2023-08-20T08:56:56;100638.39;;;31.22;99.54
47913;BME280;33676;51.006;17.180;2023-08-20T08:59:23;100640.02;;;31.50;97.06
47913;BME280;33676;51.006;17.180;2023-08-20T09:01:50;100640.86;;;31.61;96.36
47913;BME280;33676;51.006;17.180;2023-08-20T09:04:17;100635.13;;;31.82;96.83
47913;BME280;33676;51.006;17.180;2023-08-20T09:06:46;100635.40;;;32.11;96.70
47913;BME280;33676;51.006;17.180;2023-08-20T09:09:13;100634.74;;;32.41;96.40
47913;BME280;33676;51.006;17.180;2023-08-20T09:11:41;100634.79;;;32.72;96.01
47913;BME280;33676;51.006;17.180;2023-08-20T09:14:08;100635.11;;;33.06;96.20
47913;BME280;33676;51.006;17.180;2023-08-20T09:16:35;100639.45;;;33.25;92.16
47913;BME280;33676;51.006;17.180;2023-08-20T09:19:02;100637.88;;;33.26;88.55
47913;BME280;33676;51.006;17.180;2023-08-20T09:21:29;100639.19;;;33.27;86.32
47913;BME280;33676;51.006;17.180;2023-08-20T09:23:57;100645.00;;;33.26;84.81
47913;BME280;33676;51.006;17.180;2023-08-20T09:26:24;100645.20;;;33.22;82.72
47913;BME280;33676;51.006;17.180;2023-08-20T09:28:55;100642.71;;;33.11;82.21
47913;BME280;33676;51.006;17.180;2023-08-20T09:31:38;100644.98;;;33.09;82.64
47913;BME280;33676;51.006;17.180;2023-08-20T09:34:06;100647.20;;;33.09;81.63
47913;BME280;33676;51.006;17.180;2023-08-20T09:36:34;100652.34;;;33.07;80.91
47913;BME280;33676;51.006;17.180;2023-08-20T09:39:02;100653.18;;;33.03;79.93
47913;BME280;33676;51.006;17.180;2023-08-20T09:41:30;100652.98;;;33.00;79.92
47913;BME280;33676;51.006;17.180;2023-08-20T09:43:59;100656.02;;;33.05;79.78
47913;BME280;33676;51.006;17.180;2023-08-20T09:46:27;100654.98;;;33.09;78.96
47913;BME280;33676;51.006;17.180;2023-08-20T09:48:58;100652.12;;;33.05;78.11
47913;BME280;33676;51.006;17.180;2023-08-20T09:51:27;100654.55;;;32.92;77.29
47913;BME280;33676;51.006;17.180;2023-08-20T09:54:25;100656.25;;;32.78;76.89
47913;BME280;33676;51.006;17.180;2023-08-20T09:56:59;100656.11;;;32.69;77.45
47913;BME280;33676;51.006;17.180;2023-08-20T09:59:28;100650.37;;;32.60;76.96
47913;BME280;33676;51.006;17.180;2023-08-20T10:01:56;100655.20;;;32.51;76.13
47913;BME280;33676;51.006;17.180;2023-08-20T10:04:24;100657.65;;;32.37;75.22
47913;BME280;33676;51.006;17.180;2023-08-20T10:06:53;100655.73;;;32.21;75.09
47913;BME280;33676;51.006;17.180;2023-08-20T10:09:22;100655.35;;;32.10;75.21
47913;BME280;33676;51.006;17.180;2023-08-20T10:11:49;100651.80;;;31.99;74.63
47913;BME280;33676;51.006;17.180;2023-08-20T10:14:16;100651.60;;;31.88;74.23
47913;BME280;33676;51.006;17.180;2023-08-20T10:16:44;100655.06;;;31.81;74.11
47913;BME280;33676;51.006;17.180;2023-08-20T10:19:15;100654.78;;;31.76;74.52
47913;BME280;33676;51.006;17.180;2023-08-20T10:21:46;100651.92;;;31.73;74.89
47913;BME280;33676;51.006;17.180;2023-08-20T10:24:17;100656.38;;;31.74;74.94
47913;BME280;33676;51.006;17.180;2023-08-20T10:26:47;100656.67;;;31.71;74.24
47913;BME280;33676;51.006;17.180;2023-08-20T10:29:35;100652.77;;;31.65;73.65
47913;BME280;33676;51.006;17.180;2023-08-20T10:32:09;100654.64;;;31.62;73.57
47913;BME280;33676;51.006;17.180;2023-08-20T10:34:40;100649.69;;;31.71;74.37
47913;BME280;33676;51.006;17.180;2023-08-20T10:37:12;100647.77;;;31.86;74.52
47913;BME280;33676;51.006;17.180;2023-08-20T10:39:39;100653.60;;;31.92;74.28
47913;BME280;33676;51.006;17.180;2023-08-20T10:42:27;100653.27;;;31.88;73.90
47913;BME280;33676;51.006;17.180;2023-08-20T10:45:08;100652.70;;;31.82;73.71
47913;BME280;33676;51.006;17.180;2023-08-20T10:47:45;100655.35;;;31.74;73.20
47913;BME280;33676;51.006;17.180;2023-08-20T10:50:18;100656.48;;;31.72;73.46
47913;BME280;33676;51.006;17.180;2023-08-20T10:52:54;100651.66;;;31.89;74.16
47913;BME280;33676;51.006;17.180;2023-08-20T10:55:22;100649.20;;;32.22;73.87
47913;BME280;33676;51.006;17.180;2023-08-20T10:57:57;100646.05;;;32.48;74.27
47913;BME280;33676;51.006;17.180;2023-08-20T11:00:26;100649.36;;;32.84;73.79
47913;BME280;33676;51.006;17.180;2023-08-20T11:02:55;100650.02;;;33.15;73.11
47913;BME280;33676;51.006;17.180;2023-08-20T11:05:22;100655.83;;;33.40;72.19
47913;BME280;33676;51.006;17.180;2023-08-20T11:07:50;100652.36;;;33.67;72.01
47913;BME280;33676;51.006;17.180;2023-08-20T11:10:17;100650.02;;;33.94;71.53
47913;BME280;33676;51.006;17.180;2023-08-20T11:12:48;100650.73;;;34.18;71.40
47913;BME280;33676;51.006;17.180;2023-08-20T11:15:15;100647.94;;;34.41;70.16
47913;BME280;33676;51.006;17.180;2023-08-20T11:17:45;100645.69;;;34.55;69.59
47913;BME280;33676;51.006;17.180;2023-08-20T11:20:14;100644.96;;;34.51;68.38
47913;BME280;33676;51.006;17.180;2023-08-20T11:22:42;100647.41;;;34.48;68.13
47913;BME280;33676;51.006;17.180;2023-08-20T11:25:12;100642.96;;;34.58;68.24
47913;BME280;33676;51.006;17.180;2023-08-20T11:27:43;100637.27;;;34.68;67.89
47913;BME280;33676;51.006;17.180;2023-08-20T11:30:11;100635.33;;;34.79;67.13
47913;BME280;33676;51.006;17.180;2023-08-20T11:32:40;100638.05;;;34.90;66.71
47913;BME280;33676;51.006;17.180;2023-08-20T11:35:07;100640.80;;;35.00;66.29
47913;BME280;33676;51.006;17.180;2023-08-20T11:37:35;100637.31;;;35.12;65.66
47913;BME280;33676;51.006;17.180;2023-08-20T11:40:03;100638.13;;;35.24;65.24
47913;BME280;33676;51.006;17.180;2023-08-20T11:42:33;100640.58;;;35.37;64.98
47913;BME280;33676;51.006;17.180;2023-08-20T11:45:01;100640.05;;;35.56;65.34
47913;BME280;33676;51.006;17.180;2023-08-20T11:47:46;100642.27;;;35.76;64.98
47913;BME280;33676;51.006;17.180;2023-08-20T11:50:30;100643.67;;;35.83;63.78
47913;BME280;33676;51.006;17.180;2023-08-20T11:52:57;100645.70;;;35.87;63.58
47913;BME280;33676;51.006;17.180;2023-08-20T11:55:30;100644.98;;;35.93;63.64
47913;BME280;33676;51.006;17.180;2023-08-20T11:57:57;100645.59;;;36.04;63.65
47913;BME280;33676;51.006;17.180;2023-08-20T12:00:30;100639.14;;;36.20;63.86
47913;BME280;33676;51.006;17.180;2023-08-20T12:02:58;100635.61;;;36.38;63.86
47913;BME280;33676;51.006;17.180;2023-08-20T12:05:27;100635.90;;;36.52;63.46
47913;BME280;33676;51.006;17.180;2023-08-20T12:08:01;100626.56;;;36.70;63.26
47913;BME280;33676;51.006;17.180;2023-08-20T12:10:30;100624.34;;;36.85;62.70
47913;BME280;33676;51.006;17.180;2023-08-20T12:12:58;100622.58;;;36.87;61.78
47913;BME280;33676;51.006;17.180;2023-08-20T12:15:26;100620.39;;;36.86;61.60
47913;BME280;33676;51.006;17.180;2023-08-20T12:18:04;100622.39;;;36.94;61.84
47913;BME280;33676;51.006;17.180;2023-08-20T12:20:34;100622.79;;;37.05;61.36
47913;BME280;33676;51.006;17.180;2023-08-20T12:23:05;100620.44;;;37.05;60.90
47913;BME280;33676;51.006;17.180;2023-08-20T12:25:34;100618.95;;;37.06;60.59
47913;BME280;33676;51.006;17.180;2023-08-20T12:28:03;100613.48;;;37.19;60.90
47913;BME280;33676;51.006;17.180;2023-08-20T12:30:32;100616.84;;;37.36;60.59
47913;BME280;33676;51.006;17.180;2023-08-20T12:33:06;100616.44;;;37.51;60.89
47913;BME280;33676;51.006;17.180;2023-08-20T12:35:33;100615.34;;;37.68;60.73
47913;BME280;33676;51.006;17.180;2023-08-20T12:38:00;100610.65;;;37.78;60.41
47913;BME280;33676;51.006;17.180;2023-08-20T12:40:29;100609.88;;;37.91;60.38
47913;BME280;33676;51.006;17.180;2023-08-20T12:42:56;100609.66;;;37.95;59.87
47913;BME280;33676;51.006;17.180;2023-08-20T12:45:23;100603.70;;;38.02;59.83
47913;BME280;33676;51.006;17.180;2023-08-20T12:47:50;100601.88;;;38.17;59.79
47913;BME280;33676;51.006;17.180;2023-08-20T12:50:17;100601.37;;;38.26;59.32